Terminal Aerodrome Forecast
Issued by NWS Cleveland, OH

Home | Current Version | Previous Version | Graphics & Text | Print | Product List | Glossary Off
Versions: 1 2 3 4 5 6 7 8 9 10 11 12 13 14 15 16 17 18 19 20 21 22 23 24

000
FTUS41 KCLE 241700
TAFMFD
TAF
KMFD 241737Z 2418/2518 15010G15KT 6SM BR OVC006
      TEMPO 2418/2421 2SM -SHRA BR OVC010
     FM242100 16015G25KT P6SM -SHRA OVC008
     FM242200 18020G35KT 4SM -SHRA VCTS OVC012CB
     FM250000 24022G40KT P6SM OVC012
     FM250800 25015G30KT 3SM -SHSN OVC008
     FM251100 25012G22KT P6SM OVC012
     FM251500 26012G24KT 6SM -SHSN OVC015=

USA.gov is the U.S. government's official web portal to all federal, state and local government web resources and services.